MDW weather

Chicago Midway International Airport
Chicago, Illinois, United States

Public forecast

Using degrees Fahrenheit for public forecast. Weather courtesy of forecast.io.

Current aviation weather report (METAR) for Chicago Midway International Airport

Retrieved 2019/10/13 19:53 UTC (18 minutes ago):

KMDW 131953Z 25017G25KT 10SM BKN055 BKN110 13/01 A2981 RMK AO2 PK WND 23028/1856 SLP098 T01280006

Aviation forecast (TAF) for Chicago Midway International Airport

Retrieved 2019/10/13 18:46 UTC (1 hour ago):

TAF KMDW 131744Z 1318/1424 25016G28KT P6SM SCT050 BKN100 FM132300 27010KT P6SM SCT050 FM140400 27007KT P6SM FEW050 FM142100 24009KT P6SM FEW250